sensor_id;sensor_type;location;lat;lon;timestamp;P1;durP1;ratioP1;P2;durP2;ratioP2
19543;SDS011;9917;51.256;7.152;2022-09-06T00:01:56;5.55;;;2.50;;
19543;SDS011;9917;51.256;7.152;2022-09-06T00:04:22;4.20;;;2.58;;
19543;SDS011;9917;51.256;7.152;2022-09-06T00:06:50;4.07;;;2.53;;
19543;SDS011;9917;51.256;7.152;2022-09-06T00:09:15;4.00;;;2.40;;
19543;SDS011;9917;51.256;7.152;2022-09-06T00:11:41;3.40;;;2.20;;
19543;SDS011;9917;51.256;7.152;2022-09-06T00:14:07;3.55;;;2.30;;
19543;SDS011;9917;51.256;7.152;2022-09-06T00:16:33;4.43;;;2.10;;
19543;SDS011;9917;51.256;7.152;2022-09-06T00:18:59;4.00;;;2.67;;
19543;SDS011;9917;51.256;7.152;2022-09-06T00:21:26;7.28;;;2.45;;
19543;SDS011;9917;51.256;7.152;2022-09-06T00:23:54;4.00;;;2.40;;
19543;SDS011;9917;51.256;7.152;2022-09-06T00:26:20;7.55;;;2.53;;
19543;SDS011;9917;51.256;7.152;2022-09-06T00:28:47;3.92;;;2.58;;
19543;SDS011;9917;51.256;7.152;2022-09-06T00:31:14;3.78;;;2.53;;
19543;SDS011;9917;51.256;7.152;2022-09-06T00:33:41;5.72;;;2.30;;
19543;SDS011;9917;51.256;7.152;2022-09-06T00:36:07;4.03;;;2.38;;
19543;SDS011;9917;51.256;7.152;2022-09-06T00:38:34;2.85;;;1.95;;
19543;SDS011;9917;51.256;7.152;2022-09-06T00:41:02;4.57;;;2.05;;
19543;SDS011;9917;51.256;7.152;2022-09-06T00:43:28;5.82;;;2.30;;
19543;SDS011;9917;51.256;7.152;2022-09-06T00:45:54;2.45;;;2.08;;
19543;SDS011;9917;51.256;7.152;2022-09-06T00:48:20;4.20;;;2.60;;
19543;SDS011;9917;51.256;7.152;2022-09-06T00:50:47;6.03;;;2.47;;
19543;SDS011;9917;51.256;7.152;2022-09-06T00:53:16;4.93;;;2.60;;
19543;SDS011;9917;51.256;7.152;2022-09-06T00:55:42;5.35;;;2.40;;
19543;SDS011;9917;51.256;7.152;2022-09-06T00:58:10;6.28;;;2.33;;
19543;SDS011;9917;51.256;7.152;2022-09-06T01:00:36;4.45;;;2.20;;
19543;SDS011;9917;51.256;7.152;2022-09-06T01:03:02;3.17;;;1.70;;
19543;SDS011;9917;51.256;7.152;2022-09-06T01:05:34;3.83;;;1.75;;
19543;SDS011;9917;51.256;7.152;2022-09-06T01:08:07;4.95;;;2.00;;
19543;SDS011;9917;51.256;7.152;2022-09-06T01:10:46;3.63;;;1.63;;
19543;SDS011;9917;51.256;7.152;2022-09-06T01:13:39;3.92;;;1.30;;
19543;SDS011;9917;51.256;7.152;2022-09-06T01:16:28;4.78;;;2.00;;
19543;SDS011;9917;51.256;7.152;2022-09-06T01:19:05;4.65;;;1.48;;
19543;SDS011;9917;51.256;7.152;2022-09-06T01:21:44;4.15;;;1.55;;
19543;SDS011;9917;51.256;7.152;2022-09-06T01:24:22;4.75;;;2.17;;
19543;SDS011;9917;51.256;7.152;2022-09-06T01:30:08;4.53;;;1.60;;
19543;SDS011;9917;51.256;7.152;2022-09-06T01:32:38;4.20;;;1.90;;
19543;SDS011;9917;51.256;7.152;2022-09-06T01:35:11;3.35;;;1.90;;
19543;SDS011;9917;51.256;7.152;2022-09-06T01:37:43;6.50;;;2.38;;
19543;SDS011;9917;51.256;7.152;2022-09-06T01:40:09;6.30;;;1.65;;
19543;SDS011;9917;51.256;7.152;2022-09-06T01:42:37;8.23;;;1.90;;
19543;SDS011;9917;51.256;7.152;2022-09-06T01:45:04;3.70;;;2.20;;
19543;SDS011;9917;51.256;7.152;2022-09-06T01:47:38;4.85;;;2.50;;
19543;SDS011;9917;51.256;7.152;2022-09-06T01:50:18;5.13;;;2.13;;
19543;SDS011;9917;51.256;7.152;2022-09-06T01:53:03;4.28;;;2.28;;
19543;SDS011;9917;51.256;7.152;2022-09-06T01:55:42;4.80;;;2.03;;
19543;SDS011;9917;51.256;7.152;2022-09-06T01:58:28;7.13;;;1.90;;
19543;SDS011;9917;51.256;7.152;2022-09-06T02:01:16;6.78;;;2.22;;
19543;SDS011;9917;51.256;7.152;2022-09-06T02:03:47;4.25;;;2.08;;
19543;SDS011;9917;51.256;7.152;2022-09-06T02:06:19;6.35;;;2.42;;
19543;SDS011;9917;51.256;7.152;2022-09-06T02:08:50;6.45;;;2.28;;
19543;SDS011;9917;51.256;7.152;2022-09-06T02:11:19;7.68;;;2.40;;
19543;SDS011;9917;51.256;7.152;2022-09-06T02:13:50;4.13;;;2.45;;
19543;SDS011;9917;51.256;7.152;2022-09-06T02:16:19;9.20;;;2.50;;
19543;SDS011;9917;51.256;7.152;2022-09-06T02:18:48;6.53;;;2.50;;
19543;SDS011;9917;51.256;7.152;2022-09-06T02:21:19;10.07;;;2.40;;
19543;SDS011;9917;51.256;7.152;2022-09-06T02:23:50;5.72;;;2.03;;
19543;SDS011;9917;51.256;7.152;2022-09-06T02:26:20;8.93;;;2.45;;
19543;SDS011;9917;51.256;7.152;2022-09-06T02:28:50;9.82;;;2.60;;
19543;SDS011;9917;51.256;7.152;2022-09-06T02:31:17;6.47;;;2.47;;
19543;SDS011;9917;51.256;7.152;2022-09-06T02:33:47;5.22;;;2.42;;
19543;SDS011;9917;51.256;7.152;2022-09-06T02:36:14;3.58;;;2.08;;
19543;SDS011;9917;51.256;7.152;2022-09-06T02:38:41;5.95;;;2.38;;
19543;SDS011;9917;51.256;7.152;2022-09-06T02:41:08;6.05;;;2.67;;
19543;SDS011;9917;51.256;7.152;2022-09-06T02:43:34;6.57;;;2.95;;
19543;SDS011;9917;51.256;7.152;2022-09-06T02:46:01;4.55;;;2.20;;
19543;SDS011;9917;51.256;7.152;2022-09-06T02:48:27;8.27;;;2.40;;
19543;SDS011;9917;51.256;7.152;2022-09-06T02:50:53;7.28;;;2.42;;
19543;SDS011;9917;51.256;7.152;2022-09-06T02:53:19;4.25;;;2.50;;
19543;SDS011;9917;51.256;7.152;2022-09-06T02:55:45;3.75;;;2.30;;
19543;SDS011;9917;51.256;7.152;2022-09-06T02:58:12;4.55;;;2.60;;
19543;SDS011;9917;51.256;7.152;2022-09-06T03:00:38;7.68;;;2.75;;
19543;SDS011;9917;51.256;7.152;2022-09-06T03:03:05;5.78;;;2.58;;
19543;SDS011;9917;51.256;7.152;2022-09-06T03:05:32;9.40;;;2.55;;
19543;SDS011;9917;51.256;7.152;2022-09-06T03:07:58;9.98;;;2.90;;
19543;SDS011;9917;51.256;7.152;2022-09-06T03:10:24;7.35;;;3.15;;
19543;SDS011;9917;51.256;7.152;2022-09-06T03:12:50;6.13;;;2.47;;
19543;SDS011;9917;51.256;7.152;2022-09-06T03:15:16;5.72;;;2.90;;
19543;SDS011;9917;51.256;7.152;2022-09-06T03:17:42;6.75;;;2.67;;
19543;SDS011;9917;51.256;7.152;2022-09-06T03:20:11;5.63;;;2.50;;
19543;SDS011;9917;51.256;7.152;2022-09-06T03:22:36;5.78;;;2.88;;
19543;SDS011;9917;51.256;7.152;2022-09-06T03:25:03;6.18;;;3.00;;
19543;SDS011;9917;51.256;7.152;2022-09-06T03:27:29;6.32;;;2.35;;
19543;SDS011;9917;51.256;7.152;2022-09-06T03:29:55;3.83;;;2.40;;
19543;SDS011;9917;51.256;7.152;2022-09-06T03:32:21;5.32;;;2.75;;
19543;SDS011;9917;51.256;7.152;2022-09-06T03:34:47;5.85;;;2.05;;
19543;SDS011;9917;51.256;7.152;2022-09-06T03:37:14;5.20;;;2.22;;
19543;SDS011;9917;51.256;7.152;2022-09-06T03:39:40;4.95;;;2.42;;
19543;SDS011;9917;51.256;7.152;2022-09-06T03:42:06;6.10;;;2.38;;
19543;SDS011;9917;51.256;7.152;2022-09-06T03:44:33;6.63;;;2.78;;
19543;SDS011;9917;51.256;7.152;2022-09-06T03:46:59;6.88;;;3.33;;
19543;SDS011;9917;51.256;7.152;2022-09-06T03:49:25;4.97;;;2.88;;
19543;SDS011;9917;51.256;7.152;2022-09-06T03:51:51;5.80;;;3.30;;
19543;SDS011;9917;51.256;7.152;2022-09-06T03:54:18;4.15;;;3.00;;
19543;SDS011;9917;51.256;7.152;2022-09-06T03:56:44;6.82;;;2.90;;
19543;SDS011;9917;51.256;7.152;2022-09-06T03:59:10;10.40;;;3.30;;
19543;SDS011;9917;51.256;7.152;2022-09-06T04:01:35;5.07;;;2.97;;
19543;SDS011;9917;51.256;7.152;2022-09-06T04:04:01;9.57;;;3.17;;
19543;SDS011;9917;51.256;7.152;2022-09-06T04:06:27;6.38;;;3.10;;
19543;SDS011;9917;51.256;7.152;2022-09-06T04:08:53;5.25;;;3.13;;
19543;SDS011;9917;51.256;7.152;2022-09-06T04:11:21;8.48;;;2.42;;
19543;SDS011;9917;51.256;7.152;2022-09-06T04:13:46;5.07;;;2.42;;
19543;SDS011;9917;51.256;7.152;2022-09-06T04:16:12;6.80;;;2.65;;
19543;SDS011;9917;51.256;7.152;2022-09-06T04:18:38;7.38;;;3.17;;
19543;SDS011;9917;51.256;7.152;2022-09-06T04:21:04;5.68;;;2.60;;
19543;SDS011;9917;51.256;7.152;2022-09-06T04:23:30;7.57;;;2.90;;
19543;SDS011;9917;51.256;7.152;2022-09-06T04:25:57;5.93;;;2.85;;
19543;SDS011;9917;51.256;7.152;2022-09-06T04:28:24;8.38;;;2.75;;
19543;SDS011;9917;51.256;7.152;2022-09-06T04:30:51;5.85;;;3.25;;
19543;SDS011;9917;51.256;7.152;2022-09-06T04:33:18;4.28;;;2.53;;
19543;SDS011;9917;51.256;7.152;2022-09-06T04:35:46;6.13;;;3.15;;
19543;SDS011;9917;51.256;7.152;2022-09-06T04:38:13;5.57;;;3.15;;
19543;SDS011;9917;51.256;7.152;2022-09-06T04:40:39;5.13;;;3.05;;
19543;SDS011;9917;51.256;7.152;2022-09-06T04:43:05;7.18;;;3.10;;
19543;SDS011;9917;51.256;7.152;2022-09-06T04:45:32;6.70;;;3.08;;
19543;SDS011;9917;51.256;7.152;2022-09-06T04:47:58;5.65;;;3.47;;
19543;SDS011;9917;51.256;7.152;2022-09-06T04:50:24;7.13;;;3.00;;
19543;SDS011;9917;51.256;7.152;2022-09-06T04:52:49;6.85;;;2.85;;
19543;SDS011;9917;51.256;7.152;2022-09-06T04:55:15;7.45;;;3.17;;
19543;SDS011;9917;51.256;7.152;2022-09-06T04:57:41;8.43;;;3.53;;
19543;SDS011;9917;51.256;7.152;2022-09-06T05:00:08;5.82;;;3.35;;
19543;SDS011;9917;51.256;7.152;2022-09-06T05:02:35;7.20;;;3.50;;
19543;SDS011;9917;51.256;7.152;2022-09-06T05:05:01;10.88;;;3.40;;
19543;SDS011;9917;51.256;7.152;2022-09-06T05:07:27;6.07;;;3.20;;
19543;SDS011;9917;51.256;7.152;2022-09-06T05:09:53;5.15;;;3.10;;
19543;SDS011;9917;51.256;7.152;2022-09-06T05:12:19;5.20;;;2.85;;
19543;SDS011;9917;51.256;7.152;2022-09-06T05:14:45;9.05;;;3.85;;
19543;SDS011;9917;51.256;7.152;2022-09-06T05:17:11;6.93;;;3.03;;
19543;SDS011;9917;51.256;7.152;2022-09-06T05:19:39;6.28;;;3.65;;
19543;SDS011;9917;51.256;7.152;2022-09-06T05:22:04;8.60;;;3.30;;
19543;SDS011;9917;51.256;7.152;2022-09-06T05:24:30;8.98;;;3.47;;
19543;SDS011;9917;51.256;7.152;2022-09-06T05:26:56;5.45;;;3.33;;
19543;SDS011;9917;51.256;7.152;2022-09-06T05:29:22;7.38;;;3.50;;
19543;SDS011;9917;51.256;7.152;2022-09-06T05:31:48;9.57;;;3.50;;
19543;SDS011;9917;51.256;7.152;2022-09-06T05:34:14;6.55;;;3.28;;
19543;SDS011;9917;51.256;7.152;2022-09-06T05:36:42;6.07;;;3.83;;
19543;SDS011;9917;51.256;7.152;2022-09-06T05:39:07;6.13;;;3.55;;
19543;SDS011;9917;51.256;7.152;2022-09-06T05:41:33;8.02;;;3.83;;
19543;SDS011;9917;51.256;7.152;2022-09-06T05:43:59;6.88;;;4.00;;
19543;SDS011;9917;51.256;7.152;2022-09-06T05:46:25;7.68;;;3.30;;
19543;SDS011;9917;51.256;7.152;2022-09-06T05:48:52;8.77;;;3.70;;
19543;SDS011;9917;51.256;7.152;2022-09-06T05:51:18;6.78;;;4.35;;
19543;SDS011;9917;51.256;7.152;2022-09-06T05:53:45;6.57;;;3.67;;
19543;SDS011;9917;51.256;7.152;2022-09-06T05:56:11;6.47;;;3.58;;
19543;SDS011;9917;51.256;7.152;2022-09-06T05:58:38;7.15;;;3.80;;
19543;SDS011;9917;51.256;7.152;2022-09-06T06:01:05;6.30;;;3.70;;
19543;SDS011;9917;51.256;7.152;2022-09-06T06:03:31;11.52;;;3.72;;
19543;SDS011;9917;51.256;7.152;2022-09-06T06:05:58;7.32;;;3.90;;
19543;SDS011;9917;51.256;7.152;2022-09-06T06:08:23;6.65;;;3.80;;
19543;SDS011;9917;51.256;7.152;2022-09-06T06:10:51;11.13;;;4.32;;
19543;SDS011;9917;51.256;7.152;2022-09-06T06:13:16;6.95;;;4.65;;
19543;SDS011;9917;51.256;7.152;2022-09-06T06:15:43;7.45;;;4.38;;
19543;SDS011;9917;51.256;7.152;2022-09-06T06:18:09;8.30;;;5.10;;
19543;SDS011;9917;51.256;7.152;2022-09-06T06:20:35;7.28;;;4.53;;
19543;SDS011;9917;51.256;7.152;2022-09-06T06:23:01;8.70;;;4.25;;
19543;SDS011;9917;51.256;7.152;2022-09-06T06:25:27;11.68;;;4.45;;
19543;SDS011;9917;51.256;7.152;2022-09-06T06:27:55;9.00;;;4.68;;
19543;SDS011;9917;51.256;7.152;2022-09-06T06:30:21;6.90;;;3.67;;
19543;SDS011;9917;51.256;7.152;2022-09-06T06:32:47;9.38;;;4.40;;
19543;SDS011;9917;51.256;7.152;2022-09-06T06:35:13;9.30;;;4.05;;
19543;SDS011;9917;51.256;7.152;2022-09-06T06:37:39;9.68;;;4.47;;
19543;SDS011;9917;51.256;7.152;2022-09-06T06:40:06;11.07;;;4.55;;
19543;SDS011;9917;51.256;7.152;2022-09-06T06:42:32;16.08;;;6.63;;
19543;SDS011;9917;51.256;7.152;2022-09-06T06:45:00;8.00;;;4.45;;
19543;SDS011;9917;51.256;7.152;2022-09-06T06:47:25;10.98;;;4.50;;
19543;SDS011;9917;51.256;7.152;2022-09-06T06:49:51;12.05;;;4.68;;
19543;SDS011;9917;51.256;7.152;2022-09-06T06:52:17;13.77;;;4.38;;
19543;SDS011;9917;51.256;7.152;2022-09-06T06:54:43;11.80;;;4.50;;
19543;SDS011;9917;51.256;7.152;2022-09-06T06:57:09;5.40;;;3.63;;
19543;SDS011;9917;51.256;7.152;2022-09-06T06:59:35;10.00;;;4.13;;
19543;SDS011;9917;51.256;7.152;2022-09-06T07:02:03;13.35;;;4.20;;
19543;SDS011;9917;51.256;7.152;2022-09-06T07:04:29;11.45;;;3.42;;
19543;SDS011;9917;51.256;7.152;2022-09-06T07:06:55;16.50;;;3.72;;
19543;SDS011;9917;51.256;7.152;2022-09-06T07:09:21;8.48;;;3.90;;
19543;SDS011;9917;51.256;7.152;2022-09-06T07:11:47;9.82;;;5.40;;
19543;SDS011;9917;51.256;7.152;2022-09-06T07:14:13;9.32;;;4.47;;
19543;SDS011;9917;51.256;7.152;2022-09-06T07:16:39;8.70;;;4.30;;
19543;SDS011;9917;51.256;7.152;2022-09-06T07:19:07;11.00;;;5.57;;
19543;SDS011;9917;51.256;7.152;2022-09-06T07:21:32;6.03;;;2.80;;
19543;SDS011;9917;51.256;7.152;2022-09-06T07:23:59;7.13;;;3.25;;
19543;SDS011;9917;51.256;7.152;2022-09-06T07:26:25;9.40;;;3.30;;
19543;SDS011;9917;51.256;7.152;2022-09-06T07:28:53;9.85;;;2.90;;
19543;SDS011;9917;51.256;7.152;2022-09-06T07:31:20;6.82;;;2.90;;
19543;SDS011;9917;51.256;7.152;2022-09-06T07:33:46;9.45;;;4.00;;
19543;SDS011;9917;51.256;7.152;2022-09-06T07:36:13;4.55;;;2.30;;
19543;SDS011;9917;51.256;7.152;2022-09-06T07:38:39;6.47;;;2.17;;
19543;SDS011;9917;51.256;7.152;2022-09-06T07:41:06;11.95;;;6.53;;
19543;SDS011;9917;51.256;7.152;2022-09-06T07:43:33;2.42;;;1.50;;
19543;SDS011;9917;51.256;7.152;2022-09-06T07:46:00;3.83;;;1.60;;
19543;SDS011;9917;51.256;7.152;2022-09-06T07:48:28;4.10;;;1.63;;
19543;SDS011;9917;51.256;7.152;2022-09-06T07:50:54;3.75;;;1.30;;
19543;SDS011;9917;51.256;7.152;2022-09-06T07:53:21;4.88;;;0.90;;
19543;SDS011;9917;51.256;7.152;2022-09-06T07:55:47;1.88;;;0.90;;
19543;SDS011;9917;51.256;7.152;2022-09-06T07:58:13;4.88;;;1.20;;
19543;SDS011;9917;51.256;7.152;2022-09-06T08:00:39;2.08;;;0.85;;
19543;SDS011;9917;51.256;7.152;2022-09-06T08:03:05;2.03;;;0.80;;
19543;SDS011;9917;51.256;7.152;2022-09-06T08:05:31;2.13;;;0.60;;
19543;SDS011;9917;51.256;7.152;2022-09-06T08:07:57;2.28;;;0.80;;
19543;SDS011;9917;51.256;7.152;2022-09-06T08:10:24;1.65;;;0.80;;
19543;SDS011;9917;51.256;7.152;2022-09-06T08:12:51;2.50;;;0.82;;
19543;SDS011;9917;51.256;7.152;2022-09-06T08:15:17;3.08;;;0.77;;
19543;SDS011;9917;51.256;7.152;2022-09-06T08:17:44;1.08;;;0.50;;
19543;SDS011;9917;51.256;7.152;2022-09-06T08:20:12;2.20;;;0.50;;
19543;SDS011;9917;51.256;7.152;2022-09-06T08:22:40;2.15;;;0.50;;
19543;SDS011;9917;51.256;7.152;2022-09-06T08:25:06;1.90;;;0.57;;
19543;SDS011;9917;51.256;7.152;2022-09-06T08:27:33;1.42;;;0.55;;
19543;SDS011;9917;51.256;7.152;2022-09-06T08:29:59;1.10;;;0.43;;
19543;SDS011;9917;51.256;7.152;2022-09-06T08:32:25;1.52;;;0.43;;
19543;SDS011;9917;51.256;7.152;2022-09-06T08:34:51;1.55;;;0.60;;
19543;SDS011;9917;51.256;7.152;2022-09-06T08:37:17;1.55;;;0.60;;
19543;SDS011;9917;51.256;7.152;2022-09-06T08:39:43;0.98;;;0.50;;
19543;SDS011;9917;51.256;7.152;2022-09-06T08:42:09;1.92;;;0.40;;
19543;SDS011;9917;51.256;7.152;2022-09-06T08:44:37;3.70;;;0.70;;
19543;SDS011;9917;51.256;7.152;2022-09-06T08:47:05;1.45;;;0.50;;
19543;SDS011;9917;51.256;7.152;2022-09-06T08:49:32;1.90;;;0.40;;
19543;SDS011;9917;51.256;7.152;2022-09-06T08:54:57;1.75;;;0.52;;
19543;SDS011;9917;51.256;7.152;2022-09-06T08:57:33;1.98;;;0.52;;
19543;SDS011;9917;51.256;7.152;2022-09-06T09:00:08;1.52;;;0.65;;
19543;SDS011;9917;51.256;7.152;2022-09-06T09:02:40;0.93;;;0.30;;
19543;SDS011;9917;51.256;7.152;2022-09-06T09:05:12;1.98;;;0.60;;
19543;SDS011;9917;51.256;7.152;2022-09-06T09:07:43;1.23;;;0.45;;
19543;SDS011;9917;51.256;7.152;2022-09-06T09:10:11;1.73;;;0.50;;
19543;SDS011;9917;51.256;7.152;2022-09-06T09:12:41;1.27;;;0.50;;
19543;SDS011;9917;51.256;7.152;2022-09-06T09:15:13;1.60;;;0.45;;
19543;SDS011;9917;51.256;7.152;2022-09-06T09:17:41;1.02;;;0.43;;
19543;SDS011;9917;51.256;7.152;2022-09-06T09:20:08;2.45;;;0.30;;
19543;SDS011;9917;51.256;7.152;2022-09-06T09:22:34;0.88;;;0.45;;
19543;SDS011;9917;51.256;7.152;2022-09-06T09:25:00;1.40;;;0.60;;
19543;SDS011;9917;51.256;7.152;2022-09-06T09:27:27;2.05;;;0.40;;
19543;SDS011;9917;51.256;7.152;2022-09-06T09:29:57;2.10;;;0.52;;
19543;SDS011;9917;51.256;7.152;2022-09-06T09:32:29;2.60;;;0.38;;
19543;SDS011;9917;51.256;7.152;2022-09-06T09:37:46;1.67;;;0.63;;
19543;SDS011;9917;51.256;7.152;2022-09-06T09:40:12;1.30;;;0.28;;
19543;SDS011;9917;51.256;7.152;2022-09-06T09:42:39;2.20;;;0.50;;
19543;SDS011;9917;51.256;7.152;2022-09-06T09:45:17;1.42;;;0.50;;
19543;SDS011;9917;51.256;7.152;2022-09-06T09:47:49;2.47;;;0.47;;
19543;SDS011;9917;51.256;7.152;2022-09-06T09:50:21;1.33;;;0.45;;
19543;SDS011;9917;51.256;7.152;2022-09-06T09:52:49;3.40;;;0.50;;
19543;SDS011;9917;51.256;7.152;2022-09-06T09:55:15;2.22;;;0.63;;
19543;SDS011;9917;51.256;7.152;2022-09-06T09:57:46;1.40;;;0.32;;
19543;SDS011;9917;51.256;7.152;2022-09-06T10:00:14;0.93;;;0.40;;
19543;SDS011;9917;51.256;7.152;2022-09-06T10:02:58;1.92;;;0.60;;
19543;SDS011;9917;51.256;7.152;2022-09-06T10:05:25;2.08;;;0.70;;
19543;SDS011;9917;51.256;7.152;2022-09-06T10:07:51;1.77;;;0.63;;
19543;SDS011;9917;51.256;7.152;2022-09-06T10:10:19;0.82;;;0.32;;
19543;SDS011;9917;51.256;7.152;2022-09-06T10:12:47;2.85;;;0.50;;
19543;SDS011;9917;51.256;7.152;2022-09-06T10:17:58;1.55;;;0.50;;
19543;SDS011;9917;51.256;7.152;2022-09-06T10:20:24;0.93;;;0.30;;
19543;SDS011;9917;51.256;7.152;2022-09-06T10:22:58;1.80;;;0.50;;
19543;SDS011;9917;51.256;7.152;2022-09-06T10:25:42;1.50;;;0.60;;
19543;SDS011;9917;51.256;7.152;2022-09-06T10:28:16;1.65;;;0.60;;
19543;SDS011;9917;51.256;7.152;2022-09-06T10:30:58;0.88;;;0.20;;
19543;SDS011;9917;51.256;7.152;2022-09-06T10:34:02;2.30;;;0.30;;
19543;SDS011;9917;51.256;7.152;2022-09-06T10:36:37;1.17;;;0.40;;
19543;SDS011;9917;51.256;7.152;2022-09-06T10:39:11;1.52;;;0.35;;
19543;SDS011;9917;51.256;7.152;2022-09-06T10:41:52;3.60;;;0.60;;
19543;SDS011;9917;51.256;7.152;2022-09-06T10:44:29;2.25;;;0.40;;
19543;SDS011;9917;51.256;7.152;2022-09-06T10:47:04;1.50;;;0.60;;
19543;SDS011;9917;51.256;7.152;2022-09-06T10:49:35;1.48;;;0.82;;
19543;SDS011;9917;51.256;7.152;2022-09-06T10:52:02;1.17;;;0.40;;
19543;SDS011;9917;51.256;7.152;2022-09-06T10:54:31;1.73;;;0.50;;
19543;SDS011;9917;51.256;7.152;2022-09-06T10:56:59;1.85;;;0.80;;
19543;SDS011;9917;51.256;7.152;2022-09-06T10:59:29;2.50;;;0.35;;
19543;SDS011;9917;51.256;7.152;2022-09-06T11:02:00;0.93;;;0.28;;
19543;SDS011;9917;51.256;7.152;2022-09-06T11:04:36;1.35;;;0.35;;
19543;SDS011;9917;51.256;7.152;2022-09-06T11:07:03;2.45;;;0.95;;
19543;SDS011;9917;51.256;7.152;2022-09-06T11:09:36;5.05;;;2.10;;
19543;SDS011;9917;51.256;7.152;2022-09-06T11:12:06;2.90;;;0.90;;
19543;SDS011;9917;51.256;7.152;2022-09-06T11:14:36;1.77;;;0.60;;
19543;SDS011;9917;51.256;7.152;2022-09-06T11:17:03;1.40;;;0.50;;
19543;SDS011;9917;51.256;7.152;2022-09-06T11:19:35;2.17;;;0.40;;
19543;SDS011;9917;51.256;7.152;2022-09-06T11:22:09;1.95;;;0.50;;
19543;SDS011;9917;51.256;7.152;2022-09-06T11:25:24;11.45;;;9.50;;
19543;SDS011;9917;51.256;7.152;2022-09-06T11:28:14;1.70;;;0.40;;
19543;SDS011;9917;51.256;7.152;2022-09-06T11:30:43;1.85;;;0.30;;
19543;SDS011;9917;51.256;7.152;2022-09-06T11:33:18;1.55;;;0.32;;
19543;SDS011;9917;51.256;7.152;2022-09-06T11:35:49;0.70;;;0.20;;
19543;SDS011;9917;51.256;7.152;2022-09-06T11:38:23;2.03;;;0.30;;
19543;SDS011;9917;51.256;7.152;2022-09-06T11:40:55;1.92;;;0.47;;
19543;SDS011;9917;51.256;7.152;2022-09-06T11:49:30;1.88;;;0.50;;
19543;SDS011;9917;51.256;7.152;2022-09-06T11:51:58;2.85;;;0.40;;
19543;SDS011;9917;51.256;7.152;2022-09-06T11:54:25;2.47;;;0.50;;
19543;SDS011;9917;51.256;7.152;2022-09-06T11:56:58;2.97;;;0.52;;
19543;SDS011;9917;51.256;7.152;2022-09-06T11:59:36;3.72;;;0.40;;
19543;SDS011;9917;51.256;7.152;2022-09-06T12:02:06;1.95;;;0.60;;
19543;SDS011;9917;51.256;7.152;2022-09-06T12:05:08;2.08;;;0.50;;
19543;SDS011;9917;51.256;7.152;2022-09-06T12:08:10;1.70;;;0.50;;
19543;SDS011;9917;51.256;7.152;2022-09-06T12:11:03;3.50;;;0.60;;
19543;SDS011;9917;51.256;7.152;2022-09-06T12:13:51;2.05;;;0.50;;
19543;SDS011;9917;51.256;7.152;2022-09-06T12:16:18;1.17;;;0.50;;
19543;SDS011;9917;51.256;7.152;2022-09-06T12:18:52;1.95;;;0.50;;
19543;SDS011;9917;51.256;7.152;2022-09-06T12:21:39;3.20;;;0.82;;
19543;SDS011;9917;51.256;7.152;2022-09-06T12:24:20;1.10;;;0.43;;
19543;SDS011;9917;51.256;7.152;2022-09-06T12:27:15;3.15;;;0.77;;
19543;SDS011;9917;51.256;7.152;2022-09-06T12:29:52;3.28;;;1.70;;
19543;SDS011;9917;51.256;7.152;2022-09-06T12:32:20;3.17;;;1.27;;
19543;SDS011;9917;51.256;7.152;2022-09-06T12:34:49;1.85;;;1.17;;
19543;SDS011;9917;51.256;7.152;2022-09-06T12:37:28;5.57;;;1.40;;
19543;SDS011;9917;51.256;7.152;2022-09-06T12:39:55;5.70;;;1.42;;
19543;SDS011;9917;51.256;7.152;2022-09-06T12:42:23;3.08;;;1.80;;
19543;SDS011;9917;51.256;7.152;2022-09-06T12:44:50;2.88;;;0.60;;
19543;SDS011;9917;51.256;7.152;2022-09-06T12:47:19;2.38;;;0.60;;
19543;SDS011;9917;51.256;7.152;2022-09-06T12:50:04;3.20;;;0.90;;
19543;SDS011;9917;51.256;7.152;2022-09-06T12:52:42;4.90;;;0.70;;
19543;SDS011;9917;51.256;7.152;2022-09-06T12:55:12;5.00;;;2.10;;
19543;SDS011;9917;51.256;7.152;2022-09-06T12:57:46;2.15;;;0.95;;
19543;SDS011;9917;51.256;7.152;2022-09-06T13:00:13;1.65;;;0.68;;
19543;SDS011;9917;51.256;7.152;2022-09-06T13:02:40;3.33;;;1.50;;
19543;SDS011;9917;51.256;7.152;2022-09-06T13:05:14;3.33;;;1.45;;
19543;SDS011;9917;51.256;7.152;2022-09-06T13:07:41;3.10;;;0.95;;
19543;SDS011;9917;51.256;7.152;2022-09-06T13:10:09;5.38;;;1.02;;
19543;SDS011;9917;51.256;7.152;2022-09-06T13:12:39;2.70;;;0.75;;
19543;SDS011;9917;51.256;7.152;2022-09-06T13:15:11;4.90;;;1.40;;
19543;SDS011;9917;51.256;7.152;2022-09-06T13:17:40;2.50;;;0.95;;
19543;SDS011;9917;51.256;7.152;2022-09-06T13:20:11;5.63;;;1.20;;
19543;SDS011;9917;51.256;7.152;2022-09-06T13:22:40;3.67;;;0.73;;
19543;SDS011;9917;51.256;7.152;2022-09-06T13:25:15;2.28;;;0.93;;
19543;SDS011;9917;51.256;7.152;2022-09-06T13:27:47;3.55;;;0.73;;
19543;SDS011;9917;51.256;7.152;2022-09-06T13:30:32;2.80;;;0.80;;
19543;SDS011;9917;51.256;7.152;2022-09-06T13:33:03;2.83;;;1.00;;
19543;SDS011;9917;51.256;7.152;2022-09-06T13:35:30;4.53;;;0.90;;
19543;SDS011;9917;51.256;7.152;2022-09-06T13:40:43;4.95;;;1.00;;
19543;SDS011;9917;51.256;7.152;2022-09-06T13:43:09;2.53;;;1.30;;
19543;SDS011;9917;51.256;7.152;2022-09-06T13:45:38;5.70;;;1.05;;
19543;SDS011;9917;51.256;7.152;2022-09-06T13:48:04;2.80;;;0.90;;
19543;SDS011;9917;51.256;7.152;2022-09-06T13:50:30;3.20;;;1.15;;
19543;SDS011;9917;51.256;7.152;2022-09-06T13:52:56;7.13;;;2.58;;
19543;SDS011;9917;51.256;7.152;2022-09-06T13:55:22;4.57;;;1.42;;
19543;SDS011;9917;51.256;7.152;2022-09-06T13:57:54;6.60;;;1.20;;
19543;SDS011;9917;51.256;7.152;2022-09-06T14:00:20;3.25;;;0.85;;
19543;SDS011;9917;51.256;7.152;2022-09-06T14:02:47;2.53;;;0.98;;
19543;SDS011;9917;51.256;7.152;2022-09-06T14:05:14;19.40;;;12.35;;
19543;SDS011;9917;51.256;7.152;2022-09-06T14:07:40;4.30;;;2.47;;
19543;SDS011;9917;51.256;7.152;2022-09-06T14:10:06;2.40;;;1.00;;
19543;SDS011;9917;51.256;7.152;2022-09-06T14:12:33;3.17;;;1.30;;
19543;SDS011;9917;51.256;7.152;2022-09-06T14:14:59;4.00;;;1.55;;
19543;SDS011;9917;51.256;7.152;2022-09-06T14:17:25;7.60;;;1.60;;
19543;SDS011;9917;51.256;7.152;2022-09-06T14:19:52;5.05;;;1.30;;
19543;SDS011;9917;51.256;7.152;2022-09-06T14:22:18;5.95;;;1.10;;
19543;SDS011;9917;51.256;7.152;2022-09-06T14:24:44;2.95;;;1.10;;
19543;SDS011;9917;51.256;7.152;2022-09-06T14:27:09;3.85;;;1.20;;
19543;SDS011;9917;51.256;7.152;2022-09-06T14:29:35;4.43;;;1.42;;
19543;SDS011;9917;51.256;7.152;2022-09-06T14:32:01;1.60;;;0.50;;
19543;SDS011;9917;51.256;7.152;2022-09-06T14:34:27;2.50;;;0.60;;
19543;SDS011;9917;51.256;7.152;2022-09-06T14:36:55;3.00;;;0.50;;
19543;SDS011;9917;51.256;7.152;2022-09-06T14:39:20;3.80;;;1.15;;
19543;SDS011;9917;51.256;7.152;2022-09-06T14:41:46;2.28;;;0.68;;
19543;SDS011;9917;51.256;7.152;2022-09-06T14:44:12;3.83;;;1.20;;
19543;SDS011;9917;51.256;7.152;2022-09-06T14:46:38;2.17;;;1.02;;
19543;SDS011;9917;51.256;7.152;2022-09-06T14:49:05;3.63;;;1.08;;
19543;SDS011;9917;51.256;7.152;2022-09-06T14:51:32;4.10;;;1.50;;
19543;SDS011;9917;51.256;7.152;2022-09-06T14:54:01;3.90;;;0.93;;
19543;SDS011;9917;51.256;7.152;2022-09-06T14:56:28;3.10;;;0.65;;
19543;SDS011;9917;51.256;7.152;2022-09-06T14:58:54;4.90;;;1.17;;
19543;SDS011;9917;51.256;7.152;2022-09-06T15:01:21;3.92;;;0.80;;
19543;SDS011;9917;51.256;7.152;2022-09-06T15:03:48;2.83;;;1.50;;
19543;SDS011;9917;51.256;7.152;2022-09-06T15:06:15;3.88;;;1.38;;
19543;SDS011;9917;51.256;7.152;2022-09-06T15:08:42;2.85;;;0.80;;
19543;SDS011;9917;51.256;7.152;2022-09-06T15:11:10;4.15;;;0.50;;
19543;SDS011;9917;51.256;7.152;2022-09-06T15:13:36;1.33;;;0.80;;
19543;SDS011;9917;51.256;7.152;2022-09-06T15:16:03;2.85;;;0.90;;
19543;SDS011;9917;51.256;7.152;2022-09-06T15:18:29;3.30;;;1.15;;
19543;SDS011;9917;51.256;7.152;2022-09-06T15:20:55;2.55;;;0.60;;
19543;SDS011;9917;51.256;7.152;2022-09-06T15:23:22;2.65;;;0.80;;
19543;SDS011;9917;51.256;7.152;2022-09-06T15:25:48;4.50;;;1.30;;
19543;SDS011;9917;51.256;7.152;2022-09-06T15:28:16;1.60;;;0.52;;
19543;SDS011;9917;51.256;7.152;2022-09-06T15:30:42;1.77;;;0.50;;
19543;SDS011;9917;51.256;7.152;2022-09-06T15:33:08;2.53;;;0.55;;